createdAt,value
2023-02-16T00:00:16.661Z,14.98
2023-02-16T00:02:44.267Z,16.10
2023-02-16T00:05:24.192Z,15.85
2023-02-16T00:07:52.674Z,14.98
2023-02-16T00:10:22.020Z,16.75
2023-02-16T00:13:07.548Z,16.17
2023-02-16T00:15:36.302Z,15.55
2023-02-16T00:18:05.934Z,15.52
2023-02-16T00:20:33.503Z,15.52
2023-02-16T00:23:01.087Z,14.98
2023-02-16T00:25:29.959Z,15.90
2023-02-16T00:27:57.542Z,16.08
2023-02-16T00:30:25.719Z,16.20
2023-02-16T00:32:53.603Z,16.55
2023-02-16T00:35:23.668Z,15.50
2023-02-16T00:37:51.222Z,15.38
2023-02-16T00:40:19.417Z,16.08
2023-02-16T00:42:48.623Z,15.75
2023-02-16T00:45:19.839Z,16.27
2023-02-16T00:47:50.239Z,17.48
2023-02-16T00:50:20.232Z,16.70
2023-02-16T00:52:48.648Z,16.67
2023-02-16T00:55:18.182Z,16.40
2023-02-16T00:57:49.501Z,16.42
2023-02-16T01:00:21.954Z,15.32
2023-02-16T01:02:53.605Z,15.77
2023-02-16T01:05:22.655Z,14.30
2023-02-16T01:08:10.987Z,14.35
2023-02-16T01:10:58.238Z,14.35
2023-02-16T01:13:29.803Z,15.50
2023-02-16T01:15:57.924Z,14.65
2023-02-16T01:18:26.597Z,15.00
2023-02-16T01:20:54.688Z,16.02
2023-02-16T01:23:22.775Z,15.25
2023-02-16T01:25:50.314Z,14.50
2023-02-16T01:28:22.227Z,14.85
2023-02-16T01:30:52.294Z,14.93
2023-02-16T01:33:20.592Z,15.50
2023-02-16T01:35:48.814Z,16.20
2023-02-16T01:38:19.562Z,16.83
2023-02-16T01:40:56.406Z,18.00
2023-02-16T01:43:27.708Z,17.60
2023-02-16T01:46:02.865Z,17.00
2023-02-16T01:48:32.535Z,16.88
2023-02-16T01:51:06.170Z,16.88
2023-02-16T01:53:38.858Z,16.88
2023-02-16T01:56:18.608Z,17.17
2023-02-16T01:58:50.623Z,17.35
2023-02-16T02:01:38.740Z,17.58
2023-02-16T02:04:36.518Z,17.00
2023-02-16T02:07:06.667Z,15.90
2023-02-16T02:09:42.594Z,16.17
2023-02-16T02:12:19.355Z,17.42
2023-02-16T02:14:50.622Z,16.83
2023-02-16T02:20:00.096Z,16.73
2023-02-16T02:23:16.259Z,15.60
2023-02-16T02:26:23.399Z,16.23
2023-02-16T02:29:02.615Z,16.50
2023-02-16T02:31:46.859Z,16.00
2023-02-16T02:34:27.527Z,16.15
2023-02-16T02:37:12.692Z,15.45
2023-02-16T02:39:48.001Z,15.50
2023-02-16T02:42:24.235Z,16.27
2023-02-16T02:44:58.938Z,17.17
2023-02-16T02:47:38.868Z,15.60
2023-02-16T02:51:07.425Z,15.68
2023-02-16T02:53:40.728Z,16.08
2023-02-16T02:56:37.583Z,15.68
2023-02-16T02:59:26.600Z,15.02
2023-02-16T03:02:01.539Z,16.17
2023-02-16T03:04:32.930Z,16.15
2023-02-16T03:07:04.120Z,15.18
2023-02-16T03:09:32.663Z,16.42
2023-02-16T03:12:18.994Z,16.67
2023-02-16T03:14:53.595Z,16.95
2023-02-16T03:17:44.208Z,16.52
2023-02-16T03:20:34.338Z,16.90
2023-02-16T03:23:21.584Z,15.75
2023-02-16T03:26:10.658Z,16.50
2023-02-16T03:29:00.302Z,16.02
2023-02-16T03:31:31.972Z,16.90
2023-02-16T03:34:01.688Z,16.42
2023-02-16T03:36:32.799Z,17.00
2023-02-16T03:39:06.541Z,16.65
2023-02-16T03:41:38.881Z,16.58
2023-02-16T03:44:06.647Z,17.90
2023-02-16T03:46:35.726Z,16.52
2023-02-16T03:49:04.986Z,16.65
2023-02-16T03:51:33.067Z,16.40
2023-02-16T03:54:00.698Z,17.17
2023-02-16T03:56:28.487Z,16.65
2023-02-16T03:58:55.972Z,17.70
2023-02-16T04:01:23.647Z,17.60
2023-02-16T04:03:51.587Z,18.58
2023-02-16T04:06:21.649Z,15.90
2023-02-16T04:09:14.580Z,18.00
2023-02-16T04:11:56.071Z,17.83
2023-02-16T04:14:23.595Z,17.52
2023-02-16T04:16:51.104Z,17.42
2023-02-16T04:19:18.834Z,18.45
2023-02-16T04:22:13.287Z,17.60
2023-02-16T04:24:40.857Z,15.38
2023-02-16T04:27:09.365Z,17.00
2023-02-16T04:29:36.982Z,15.93
2023-02-16T04:32:05.719Z,17.60
2023-02-16T04:34:33.653Z,17.80
2023-02-16T04:37:03.616Z,17.80
2023-02-16T04:39:34.640Z,17.05
2023-02-16T04:44:36.370Z,16.90
2023-02-16T04:47:04.643Z,18.15
2023-02-16T04:49:32.158Z,19.40
2023-02-16T04:52:00.850Z,17.75
2023-02-16T04:54:28.549Z,17.35
2023-02-16T04:56:57.477Z,17.92
2023-02-16T04:59:27.602Z,18.02
2023-02-16T05:01:57.342Z,17.73
2023-02-16T05:04:25.226Z,18.98
2023-02-16T05:06:52.763Z,17.85
2023-02-16T05:09:21.787Z,17.10
2023-02-16T05:12:16.778Z,18.40
2023-02-16T05:14:46.617Z,18.65
2023-02-16T05:17:16.669Z,17.65
2023-02-16T05:19:47.601Z,18.10
2023-02-16T05:22:15.714Z,17.27
2023-02-16T05:24:44.739Z,19.27
2023-02-16T05:27:14.962Z,18.42
2023-02-16T05:29:42.470Z,17.38
2023-02-16T05:32:12.445Z,17.52
2023-02-16T05:34:39.975Z,18.17
2023-02-16T05:37:07.596Z,19.35
2023-02-16T05:39:35.149Z,17.40
2023-02-16T05:42:03.037Z,17.83
2023-02-16T05:44:30.738Z,18.38
2023-02-16T05:46:58.435Z,18.45
2023-02-16T05:49:27.458Z,19.45
2023-02-16T05:51:55.601Z,18.05
2023-02-16T05:54:23.200Z,18.42
2023-02-16T05:56:52.605Z,18.85
2023-02-16T05:59:20.456Z,19.33
2023-02-16T06:01:51.606Z,17.65
2023-02-16T06:04:21.605Z,19.25
2023-02-16T06:06:50.795Z,18.67
2023-02-16T06:09:18.706Z,17.83
2023-02-16T06:11:47.483Z,18.52
2023-02-16T06:14:17.444Z,17.98
2023-02-16T06:16:47.199Z,18.63
2023-02-16T06:19:17.669Z,17.27
2023-02-16T06:21:46.032Z,18.15
2023-02-16T06:24:16.598Z,16.58
2023-02-16T06:26:44.120Z,17.95
2023-02-16T06:29:12.073Z,17.20
2023-02-16T06:31:41.708Z,18.00
2023-02-16T06:34:10.600Z,17.63
2023-02-16T06:36:40.642Z,17.85
2023-02-16T06:39:09.598Z,17.02
2023-02-16T06:41:41.601Z,17.23
2023-02-16T06:44:13.442Z,18.40
2023-02-16T06:49:12.767Z,18.60
2023-02-16T06:51:40.630Z,16.83
2023-02-16T06:54:12.753Z,16.67
2023-02-16T06:56:45.415Z,16.58
2023-02-16T06:59:13.384Z,17.83
2023-02-16T07:01:44.929Z,17.55
2023-02-16T07:04:14.678Z,18.60
2023-02-16T07:06:44.654Z,18.55
2023-02-16T07:09:13.167Z,18.10
2023-02-16T07:11:40.885Z,18.52
2023-02-16T07:14:11.608Z,19.67
2023-02-16T07:16:40.165Z,18.80
2023-02-16T07:19:08.111Z,18.02
2023-02-16T07:21:35.859Z,17.75
2023-02-16T07:24:03.664Z,18.85
2023-02-16T07:26:32.112Z,19.58
2023-02-16T07:28:59.829Z,20.38
2023-02-16T07:31:28.811Z,19.45
2023-02-16T07:33:56.655Z,20.23
2023-02-16T07:36:25.139Z,20.27
2023-02-16T07:38:54.871Z,20.30
2023-02-16T07:41:22.677Z,20.05
2023-02-16T07:43:50.271Z,21.35
2023-02-16T07:46:17.806Z,20.02
2023-02-16T07:48:49.712Z,20.33
2023-02-16T07:51:23.336Z,20.50
2023-02-16T07:53:50.995Z,21.05
2023-02-16T07:56:21.204Z,19.80
2023-02-16T07:58:49.668Z,20.45
2023-02-16T08:01:17.379Z,20.33
2023-02-16T08:03:44.921Z,20.05
2023-02-16T08:09:08.170Z,20.10
2023-02-16T08:11:37.605Z,21.33
2023-02-16T08:14:05.676Z,20.17
2023-02-16T08:16:35.620Z,21.27
2023-02-16T08:19:04.644Z,20.85
2023-02-16T08:21:35.288Z,20.42
2023-02-16T08:24:06.079Z,20.25
2023-02-16T08:26:37.802Z,20.10
2023-02-16T08:29:07.605Z,21.13
2023-02-16T08:31:36.538Z,20.38
2023-02-16T08:34:05.911Z,19.40
2023-02-16T08:36:39.902Z,20.20
2023-02-16T08:39:09.790Z,19.88
2023-02-16T08:41:39.252Z,19.73
2023-02-16T08:44:08.738Z,21.15
2023-02-16T08:46:39.131Z,19.23
2023-02-16T08:49:09.628Z,19.50
2023-02-16T08:51:44.704Z,19.13
2023-02-16T08:54:17.622Z,20.20
2023-02-16T08:56:49.608Z,20.47
2023-02-16T08:59:21.370Z,19.80
2023-02-16T09:01:49.562Z,19.50
2023-02-16T09:04:19.682Z,20.45
2023-02-16T09:06:49.334Z,19.60
2023-02-16T09:09:17.198Z,19.08
2023-02-16T09:11:45.597Z,20.80
2023-02-16T09:14:14.026Z,21.30
2023-02-16T09:16:46.500Z,20.95
2023-02-16T09:19:17.836Z,19.55
2023-02-16T09:21:46.724Z,20.02
2023-02-16T09:24:15.904Z,19.67
2023-02-16T09:26:44.500Z,20.17
2023-02-16T09:29:13.950Z,19.25
2023-02-16T09:31:42.115Z,19.02
2023-02-16T09:34:17.285Z,19.52
2023-02-16T09:36:45.921Z,18.98
2023-02-16T09:39:16.392Z,18.98
2023-02-16T09:42:03.336Z,19.92
2023-02-16T09:44:42.484Z,19.60
2023-02-16T09:47:17.661Z,19.77
2023-02-16T09:49:48.596Z,18.77
2023-02-16T09:52:26.582Z,19.08
2023-02-16T09:54:58.201Z,19.40
2023-02-16T09:57:41.979Z,19.25
2023-02-16T10:00:22.100Z,18.70
2023-02-16T10:02:57.249Z,18.08
2023-02-16T10:05:30.178Z,18.05
2023-02-16T10:08:05.920Z,17.33
2023-02-16T10:10:48.796Z,16.90
2023-02-16T10:13:25.948Z,17.60
2023-02-16T10:15:57.675Z,16.83
2023-02-16T10:18:52.888Z,17.63
2023-02-16T10:21:26.785Z,16.73
2023-02-16T10:23:59.957Z,17.25
2023-02-16T10:26:35.144Z,18.60
2023-02-16T10:29:08.283Z,17.92
2023-02-16T10:31:40.485Z,17.65
2023-02-16T10:34:24.301Z,17.35
2023-02-16T10:37:17.605Z,16.88
2023-02-16T10:39:55.648Z,16.33
2023-02-16T10:42:34.926Z,18.30
2023-02-16T10:45:16.595Z,18.00
2023-02-16T10:47:46.988Z,18.15
2023-02-16T10:50:22.598Z,17.98
2023-02-16T10:52:51.674Z,17.02
2023-02-16T10:55:19.222Z,17.10
2023-02-16T10:57:56.601Z,17.85
2023-02-16T11:00:35.070Z,17.13
2023-02-16T11:03:04.605Z,17.45
2023-02-16T11:05:37.928Z,17.55
2023-02-16T11:08:11.619Z,17.05
2023-02-16T11:10:45.973Z,17.85
2023-02-16T11:13:31.338Z,17.42
2023-02-16T11:16:04.681Z,16.65
2023-02-16T11:18:37.798Z,17.60
2023-02-16T11:21:07.536Z,17.00
2023-02-16T11:23:38.150Z,17.83
2023-02-16T11:26:08.759Z,17.38
2023-02-16T11:28:42.012Z,16.60
2023-02-16T11:31:19.787Z,17.83
2023-02-16T11:33:58.772Z,18.25
2023-02-16T11:36:33.005Z,18.02
2023-02-16T11:39:05.755Z,18.55
2023-02-16T11:41:35.304Z,18.13
2023-02-16T11:44:05.315Z,17.35
2023-02-16T11:46:40.672Z,18.17
2023-02-16T11:49:31.636Z,17.33
2023-02-16T11:51:59.909Z,17.25
2023-02-16T11:54:28.434Z,17.50
2023-02-16T11:57:04.214Z,17.73
2023-02-16T11:59:38.601Z,17.85
2023-02-16T12:02:36.607Z,17.85
2023-02-16T12:05:22.672Z,17.55
2023-02-16T12:08:06.390Z,18.58
2023-02-16T12:10:41.645Z,17.17
2023-02-16T12:13:18.905Z,18.27
2023-02-16T12:15:53.683Z,18.35
2023-02-16T12:18:31.300Z,18.20
2023-02-16T12:21:10.490Z,17.90
2023-02-16T12:23:42.628Z,18.00
2023-02-16T12:26:34.842Z,18.15
2023-02-16T12:31:54.744Z,17.90
2023-02-16T12:34:29.753Z,17.40
2023-02-16T12:37:05.174Z,18.10
2023-02-16T12:39:42.233Z,18.35
2023-02-16T12:42:26.676Z,17.73
2023-02-16T12:44:59.147Z,17.67
2023-02-16T12:47:33.175Z,18.67
2023-02-16T12:50:04.598Z,19.38
2023-02-16T12:52:40.094Z,19.05
2023-02-16T12:55:21.610Z,18.50
2023-02-16T12:57:55.692Z,19.42
2023-02-16T13:00:31.196Z,19.58
2023-02-16T13:03:12.193Z,18.52
2023-02-16T13:05:40.680Z,18.27
2023-02-16T13:08:16.701Z,19.15
2023-02-16T13:10:56.243Z,18.75
2023-02-16T13:13:28.078Z,19.40
2023-02-16T13:18:33.378Z,18.92
2023-02-16T13:21:09.266Z,18.52
2023-02-16T13:23:48.635Z,19.65
2023-02-16T13:26:38.482Z,19.60
2023-02-16T13:29:29.009Z,19.08
2023-02-16T13:32:09.826Z,18.20
2023-02-16T13:34:54.486Z,18.50
2023-02-16T13:37:40.846Z,19.52
2023-02-16T13:40:44.613Z,19.60
2023-02-16T13:43:30.403Z,19.65
2023-02-16T13:46:01.820Z,20.35
2023-02-16T13:48:33.612Z,20.45
2023-02-16T13:51:05.202Z,20.55
2023-02-16T13:53:38.443Z,20.63
2023-02-16T13:56:32.188Z,20.13
2023-02-16T13:59:10.430Z,20.40
2023-02-16T14:01:41.819Z,20.70
2023-02-16T14:04:14.728Z,20.48
2023-02-16T14:06:43.743Z,21.77
2023-02-16T14:09:34.635Z,21.23
2023-02-16T14:12:16.326Z,22.33
2023-02-16T14:14:57.061Z,21.92
2023-02-16T14:17:30.553Z,21.73
2023-02-16T14:19:59.669Z,22.95
2023-02-16T14:22:35.822Z,20.95
2023-02-16T14:25:07.579Z,23.60
2023-02-16T14:27:45.410Z,22.48
2023-02-16T14:30:22.200Z,22.35
2023-02-16T14:32:53.856Z,23.02
2023-02-16T14:35:25.678Z,25.48
2023-02-16T14:37:58.872Z,24.13
2023-02-16T14:40:48.417Z,23.92
2023-02-16T14:43:25.311Z,25.85
2023-02-16T14:46:30.676Z,25.55
2023-02-16T14:49:39.384Z,24.55
2023-02-16T14:52:39.828Z,23.48
2023-02-16T14:55:36.629Z,24.13
2023-02-16T14:58:28.084Z,24.80
2023-02-16T15:01:04.621Z,24.58
2023-02-16T15:03:41.656Z,24.38
2023-02-16T15:06:19.655Z,22.98
2023-02-16T15:08:56.996Z,25.27
2023-02-16T15:11:32.609Z,23.10
2023-02-16T15:14:08.042Z,23.00
2023-02-16T15:16:39.135Z,24.85
2023-02-16T15:19:13.171Z,24.53
2023-02-16T15:21:41.100Z,23.38
2023-02-16T15:24:22.966Z,22.88
2023-02-16T15:27:01.428Z,22.45
2023-02-16T15:29:30.274Z,22.27
2023-02-16T15:32:00.392Z,22.13
2023-02-16T15:34:33.139Z,21.88
2023-02-16T15:37:02.625Z,22.50
2023-02-16T15:39:45.203Z,21.98
2023-02-16T15:42:27.703Z,22.05
2023-02-16T15:44:56.980Z,20.75
2023-02-16T15:47:26.182Z,21.75
2023-02-16T15:49:54.671Z,20.67
2023-02-16T15:52:29.734Z,21.00
2023-02-16T15:54:58.343Z,21.50
2023-02-16T15:57:31.917Z,20.50
2023-02-16T16:00:03.963Z,20.95
2023-02-16T16:02:43.680Z,21.27
2023-02-16T16:05:23.406Z,20.48
2023-02-16T16:07:51.260Z,21.15
2023-02-16T16:10:24.911Z,21.52
2023-02-16T16:12:59.673Z,20.13
2023-02-16T16:15:31.168Z,20.88
2023-02-16T16:18:02.470Z,21.70
2023-02-16T16:20:38.649Z,20.63
2023-02-16T16:23:22.255Z,20.13
2023-02-16T16:25:51.547Z,20.52
2023-02-16T16:28:37.851Z,20.15
2023-02-16T16:31:10.881Z,20.58
2023-02-16T16:33:55.653Z,20.85
2023-02-16T16:36:33.711Z,19.50
2023-02-16T16:39:27.246Z,19.77
2023-02-16T16:42:22.618Z,20.40
2023-02-16T16:44:59.050Z,19.75
2023-02-16T16:47:30.484Z,19.63
2023-02-16T16:50:01.062Z,19.90
2023-02-16T16:52:42.643Z,20.52
2023-02-16T16:55:26.085Z,21.95
2023-02-16T16:57:59.160Z,20.30
2023-02-16T17:00:33.959Z,20.67
2023-02-16T17:03:02.449Z,21.13
2023-02-16T17:05:30.230Z,20.33
2023-02-16T17:07:57.892Z,20.38
2023-02-16T17:10:25.810Z,19.80
2023-02-16T17:12:57.627Z,20.50
2023-02-16T17:15:34.556Z,21.58
2023-02-16T17:18:04.645Z,21.02
2023-02-16T17:20:34.615Z,22.83
2023-02-16T17:23:04.702Z,21.30
2023-02-16T17:25:34.138Z,20.42
2023-02-16T17:28:01.726Z,21.50
2023-02-16T17:30:30.715Z,21.13
2023-02-16T17:32:58.394Z,22.98
2023-02-16T17:35:27.596Z,21.52
2023-02-16T17:37:57.634Z,21.90
2023-02-16T17:40:26.206Z,21.95
2023-02-16T17:42:54.704Z,21.63
2023-02-16T17:45:23.374Z,22.40
2023-02-16T17:47:54.611Z,20.77
2023-02-16T17:50:23.039Z,22.27
2023-02-16T17:52:56.964Z,20.05
2023-02-16T17:55:24.694Z,21.13
2023-02-16T17:57:52.515Z,21.25
2023-02-16T18:00:22.430Z,20.30
2023-02-16T18:02:51.797Z,22.58
2023-02-16T18:05:19.364Z,21.25
2023-02-16T18:07:46.894Z,21.50
2023-02-16T18:10:30.739Z,20.75
2023-02-16T18:12:58.290Z,18.02
2023-02-16T18:15:25.781Z,19.33
2023-02-16T18:17:55.500Z,18.52
2023-02-16T18:20:25.615Z,18.48
2023-02-16T18:22:53.503Z,18.95
2023-02-16T18:25:21.554Z,17.98
2023-02-16T18:27:50.681Z,17.35
2023-02-16T18:30:18.269Z,17.40
2023-02-16T18:32:46.448Z,16.38
2023-02-16T18:35:17.051Z,14.90
2023-02-16T18:37:45.678Z,14.98
2023-02-16T18:40:16.567Z,13.88
2023-02-16T18:42:44.999Z,14.57
2023-02-16T18:45:13.235Z,14.55
2023-02-16T18:47:40.982Z,13.27
2023-02-16T18:50:09.444Z,13.20
2023-02-16T18:52:38.396Z,12.82
2023-02-16T18:55:06.639Z,12.30
2023-02-16T18:57:35.639Z,11.63
2023-02-16T19:00:05.645Z,12.90
2023-02-16T19:02:33.224Z,12.50
2023-02-16T19:05:01.320Z,12.20
2023-02-16T19:07:28.945Z,12.30
2023-02-16T19:09:57.791Z,12.65
2023-02-16T19:12:25.622Z,11.35
2023-02-16T19:14:53.142Z,12.32
2023-02-16T19:17:20.821Z,11.98
2023-02-16T19:19:48.689Z,11.60
2023-02-16T19:22:17.075Z,11.07
2023-02-16T19:24:44.602Z,11.00
2023-02-16T19:27:13.703Z,11.95
2023-02-16T19:29:41.945Z,11.40
2023-02-16T19:32:09.501Z,11.75
2023-02-16T19:34:37.711Z,11.75
2023-02-16T19:37:05.216Z,11.45
2023-02-16T19:39:32.963Z,11.10
2023-02-16T19:42:00.632Z,11.43
2023-02-16T19:44:30.483Z,13.57
2023-02-16T19:46:57.957Z,11.93
2023-02-16T19:49:25.449Z,13.25
2023-02-16T19:51:55.746Z,13.10
2023-02-16T19:54:25.048Z,12.88
2023-02-16T19:56:54.018Z,13.23
2023-02-16T19:59:22.781Z,13.05
2023-02-16T20:01:55.372Z,13.23
2023-02-16T20:04:23.206Z,14.30
2023-02-16T20:06:54.230Z,13.82
2023-02-16T20:09:22.808Z,13.80
2023-02-16T20:11:52.823Z,14.68
2023-02-16T20:14:20.635Z,14.05
2023-02-16T20:16:49.990Z,13.77
2023-02-16T20:19:19.458Z,14.10
2023-02-16T20:21:47.657Z,13.68
2023-02-16T20:24:17.962Z,15.18
2023-02-16T20:26:48.886Z,14.30
2023-02-16T20:29:17.038Z,14.82
2023-02-16T20:31:49.561Z,14.55
2023-02-16T20:34:19.069Z,14.13
2023-02-16T20:36:46.612Z,14.55
2023-02-16T20:39:14.181Z,14.50
2023-02-16T20:41:41.773Z,15.07
2023-02-16T20:44:09.302Z,15.05
2023-02-16T20:46:38.260Z,15.27
2023-02-16T20:49:06.693Z,13.57
2023-02-16T20:51:36.506Z,15.38
2023-02-16T20:54:04.937Z,15.13
2023-02-16T20:56:32.639Z,16.00
2023-02-16T20:59:01.314Z,15.07
2023-02-16T21:01:31.369Z,15.38
2023-02-16T21:04:00.810Z,16.38
2023-02-16T21:06:28.922Z,15.48
2023-02-16T21:08:58.284Z,16.48
2023-02-16T21:11:26.436Z,16.00
2023-02-16T21:13:54.781Z,16.88
2023-02-16T21:16:22.746Z,17.75
2023-02-16T21:18:50.799Z,17.85
2023-02-16T21:21:18.979Z,17.67
2023-02-16T21:23:48.279Z,18.27
2023-02-16T21:26:18.526Z,17.67
2023-02-16T21:28:47.631Z,17.48
2023-02-16T21:31:17.681Z,16.60
2023-02-16T21:33:46.155Z,17.80
2023-02-16T21:36:18.366Z,16.33
2023-02-16T21:38:46.631Z,16.08
2023-02-16T21:41:26.705Z,16.35
2023-02-16T21:43:55.973Z,16.75
2023-02-16T21:46:23.972Z,15.90
2023-02-16T21:48:51.101Z,16.48
2023-02-16T21:51:21.112Z,16.67
2023-02-16T21:53:49.700Z,15.35
2023-02-16T21:56:27.560Z,16.50
2023-02-16T21:58:55.216Z,16.45
2023-02-16T22:01:24.762Z,16.95
2023-02-16T22:03:56.693Z,16.92
2023-02-16T22:06:25.364Z,15.70
2023-02-16T22:08:53.417Z,16.52
2023-02-16T22:11:22.179Z,18.42
2023-02-16T22:13:55.390Z,17.08
2023-02-16T22:16:23.736Z,16.90
2023-02-16T22:18:51.391Z,17.50
2023-02-16T22:21:18.997Z,18.00
2023-02-16T22:23:46.557Z,18.58
2023-02-16T22:26:25.330Z,19.48
2023-02-16T22:28:55.976Z,18.15
2023-02-16T22:31:24.900Z,18.98
2023-02-16T22:33:57.043Z,19.30
2023-02-16T22:36:25.257Z,19.67
2023-02-16T22:38:55.177Z,20.48
2023-02-16T22:41:24.163Z,22.35
2023-02-16T22:43:59.079Z,19.92
2023-02-16T22:46:28.689Z,21.50
2023-02-16T22:48:58.252Z,21.42
2023-02-16T22:51:27.616Z,22.10
2023-02-16T22:53:55.178Z,21.20
2023-02-16T22:56:23.630Z,22.40
2023-02-16T22:58:51.130Z,22.25
2023-02-16T23:01:21.919Z,23.00
2023-02-16T23:03:53.288Z,22.58
2023-02-16T23:06:23.633Z,22.48
2023-02-16T23:08:53.736Z,22.30
2023-02-16T23:11:21.514Z,23.00
2023-02-16T23:13:53.035Z,23.42
2023-02-16T23:16:23.737Z,23.20
2023-02-16T23:18:56.643Z,24.83
2023-02-16T23:21:27.238Z,24.50
2023-02-16T23:23:55.929Z,23.83
2023-02-16T23:26:28.662Z,25.73
2023-02-16T23:28:58.665Z,25.75
2023-02-16T23:31:32.792Z,26.90
2023-02-16T23:34:02.258Z,26.48
2023-02-16T23:36:30.372Z,25.88
2023-02-16T23:39:00.330Z,25.90
2023-02-16T23:41:28.649Z,26.27
2023-02-16T23:43:56.513Z,27.55
2023-02-16T23:46:24.765Z,26.23
2023-02-16T23:48:53.890Z,28.73
2023-02-16T23:51:21.388Z,28.80
2023-02-16T23:53:49.290Z,26.92
2023-02-16T23:56:26.938Z,29.02
2023-02-16T23:58:58.641Z,28.02
